الصفحة الرئيسية
METAR-TAF:

METAR-TAF

مطار :

ألور ستار, ماليزيا

دائرة عرض: 06-11-40N, خط طول: 100-24-03E, ارتفاع: 5 متر

مراقبة الطقس الحالي

تاريخ ووقت الإصدار 1ساعة و 3 دقيقة قبل الساعة 18:00UTC
رياح هادئة
درجة الحرارة 25°درجة مئوية
الرطوبة 100%
ضغط 1012 hPa
الرؤية: 9000 متر
غيوم قليلة على ارتفاع 1000 قدم

METAR: WMKA 211800Z 00000KT 9000 FEW010 25/25 Q1012

زمن: 03:03 (19:03 UTC)

توقعات

تاريخ ووقت الإصدار 2ساعات و 3 دقيقة قبل الساعة 17:00UTC
التوقعات صالحة من21 الساعة 18 UTC إلى 22 الساعة 18 UTC
ريح 3 عقدةمن اتجاهات متغيرة
الرؤية 10 كم أو أكثر
غيوم قليلة على ارتفاع 3000 قدم
أصبح
من 22 الساعة 04 UTC إلى 22 الساعة 06 UTC
ريح 6 عقدة من الغرب
غيوم قليلة على ارتفاع 2000 قدم
مؤقت
من 22 الساعة 06 UTC إلى 22 الساعة 10 UTC
الرؤية: 5000 متر
غيوم قليلة على ارتفاع 1000 قدم
غيوم قليلة على ارتفاع 1700 قدم, مزنة ركامية.
عاصفة رعدية, مطر
أصبح
من 22 الساعة 11 UTC إلى 22 الساعة 13 UTC
ريح 3 عقدةمن اتجاهات متغيرة
غيوم قليلة على ارتفاع 3000 قدم

TAF: WMKA 211700Z 2118/2218 VRB03KT 9999 FEW030 BECMG 2204/2206 27006KT FEW020 TEMPO 2206/2210 5000 TSRA FEW010 FEW017CB BECMG 2211/2213 VRB03KT FEW030

أرصاد الطقس والتوقعات من أكثر من 4000 مطار (تقارير الطقس للمطار METAR والتنبؤ بالطقس بالمطارTAF).

المحطات المتاحة هي النقط الصفراء والحمراء على الخريطة.

حرك المؤشر فوق النقطة لمعرفة اسم المحطة.

ثم انقر لمعرفة أرصاد وتوقعات الطقس.

لتغيير الخارطة: اضغط على الأزرار الخضراء مع رمز الصليب الأسود للتكبير. على الزر الأخضر مع شرطة للتصغير، أو على الأسهم الخضراء للخرائط المجاورة.


METAR-TAF: